createdAt,value
2018-12-02T00:00:18.740Z,996.80
2018-12-02T00:01:18.762Z,996.79
2018-12-02T00:02:18.723Z,996.79
2018-12-02T00:03:18.703Z,996.81
2018-12-02T00:04:18.680Z,996.79
2018-12-02T00:05:18.757Z,996.78
2018-12-02T00:06:18.662Z,996.78
2018-12-02T00:07:18.656Z,996.76
2018-12-02T00:08:18.659Z,996.72
2018-12-02T00:09:18.620Z,996.72
2018-12-02T00:10:18.619Z,996.72
2018-12-02T00:11:18.618Z,996.67
2018-12-02T00:12:18.594Z,996.72
2018-12-02T00:13:18.588Z,996.65
2018-12-02T00:14:18.578Z,996.58
2018-12-02T00:15:18.558Z,996.56
2018-12-02T00:16:18.547Z,996.56
2018-12-02T00:17:18.536Z,996.55
2018-12-02T00:18:18.543Z,996.52
2018-12-02T00:19:18.518Z,996.47
2018-12-02T00:20:18.500Z,996.43
2018-12-02T00:21:18.492Z,996.43
2018-12-02T00:22:18.483Z,996.46
2018-12-02T00:23:18.484Z,996.44
2018-12-02T00:24:18.466Z,996.44
2018-12-02T00:25:18.449Z,996.45
2018-12-02T00:26:18.436Z,996.41
2018-12-02T00:27:18.423Z,996.37
2018-12-02T00:28:18.429Z,996.34
2018-12-02T00:29:18.401Z,996.29
2018-12-02T00:30:18.388Z,996.26
2018-12-02T00:31:18.381Z,996.28
2018-12-02T00:32:18.373Z,996.24
2018-12-02T00:33:18.376Z,996.24
2018-12-02T00:34:18.365Z,996.23
2018-12-02T00:35:18.332Z,996.26
2018-12-02T00:36:18.325Z,996.23
2018-12-02T00:37:18.313Z,996.25
2018-12-02T00:38:18.311Z,996.24
2018-12-02T00:39:18.290Z,996.20
2018-12-02T00:40:18.285Z,996.26
2018-12-02T00:41:18.266Z,996.25
2018-12-02T00:42:18.260Z,996.22
2018-12-02T00:43:18.271Z,996.24
2018-12-02T00:44:18.250Z,996.21
2018-12-02T00:45:18.220Z,996.22
2018-12-02T00:46:18.209Z,996.18
2018-12-02T00:47:18.200Z,996.17
2018-12-02T00:48:18.203Z,996.12
2018-12-02T00:49:18.196Z,996.14
2018-12-02T00:50:18.176Z,996.14
2018-12-02T00:51:18.156Z,996.14
2018-12-02T00:52:18.144Z,996.09
2018-12-02T00:53:18.159Z,996.10
2018-12-02T00:54:18.123Z,996.12
2018-12-02T00:55:18.113Z,996.05
2018-12-02T00:56:18.104Z,996.07
2018-12-02T00:57:18.104Z,996.07
2018-12-02T00:58:18.087Z,996.07
2018-12-02T00:59:18.076Z,996.01
2018-12-02T01:00:18.059Z,996.00
2018-12-02T01:01:18.040Z,995.96
2018-12-02T01:02:18.033Z,996.01
2018-12-02T01:03:18.031Z,995.98
2018-12-02T01:04:18.051Z,996.00
2018-12-02T01:05:18.019Z,995.95
2018-12-02T01:06:17.984Z,995.99
2018-12-02T01:07:18.004Z,995.98
2018-12-02T01:08:17.962Z,995.98
2018-12-02T01:09:17.962Z,995.97
2018-12-02T01:10:17.949Z,995.96
2018-12-02T01:11:17.934Z,995.98
2018-12-02T01:12:17.921Z,995.94
2018-12-02T01:13:17.918Z,995.91
2018-12-02T01:14:17.909Z,995.91
2018-12-02T01:15:17.891Z,995.88
2018-12-02T01:16:17.875Z,995.90
2018-12-02T01:17:17.861Z,995.93
2018-12-02T01:18:17.855Z,995.89
2018-12-02T01:19:17.857Z,995.87
2018-12-02T01:20:17.843Z,995.86
2018-12-02T01:21:17.816Z,995.83
2018-12-02T01:22:17.812Z,995.79
2018-12-02T01:23:17.794Z,995.79
2018-12-02T01:24:17.793Z,995.77
2018-12-02T01:25:17.771Z,995.79
2018-12-02T01:26:17.760Z,995.80
2018-12-02T01:27:17.755Z,995.77
2018-12-02T01:28:17.742Z,995.80
2018-12-02T01:29:17.741Z,995.79
2018-12-02T01:30:17.732Z,995.79
2018-12-02T01:31:17.705Z,995.72
2018-12-02T01:32:17.697Z,995.73
2018-12-02T01:33:17.686Z,995.67
2018-12-02T01:34:17.701Z,995.70
2018-12-02T01:35:17.663Z,995.67
2018-12-02T01:36:17.655Z,995.68
2018-12-02T01:37:17.637Z,995.63
2018-12-02T01:38:17.629Z,995.58
2018-12-02T01:39:17.631Z,995.55
2018-12-02T01:40:17.605Z,995.55
2018-12-02T01:41:17.606Z,995.50
2018-12-02T01:42:17.585Z,995.49
2018-12-02T01:43:17.604Z,995.44
2018-12-02T01:44:17.601Z,995.41
2018-12-02T01:45:17.557Z,995.36
2018-12-02T01:46:17.538Z,995.39
2018-12-02T01:47:17.527Z,995.39
2018-12-02T01:48:17.529Z,995.34
2018-12-02T01:49:17.516Z,995.27
2018-12-02T01:50:17.493Z,995.23
2018-12-02T01:51:17.503Z,995.20
2018-12-02T01:52:17.476Z,995.18
2018-12-02T01:53:17.479Z,995.18
2018-12-02T01:54:17.458Z,995.16
2018-12-02T01:55:17.441Z,995.18
2018-12-02T01:56:25.263Z,995.10
2018-12-02T01:57:17.415Z,995.14
2018-12-02T01:58:17.402Z,995.10
2018-12-02T01:59:17.404Z,995.07
2018-12-02T02:00:24.941Z,995.04
2018-12-02T02:01:17.369Z,995.00
2018-12-02T02:02:17.365Z,995.07
2018-12-02T02:03:17.354Z,995.08
2018-12-02T02:04:17.365Z,995.04
2018-12-02T02:05:17.325Z,994.97
2018-12-02T02:06:17.326Z,994.96
2018-12-02T02:07:17.309Z,994.98
2018-12-02T02:08:17.312Z,994.95
2018-12-02T02:09:17.287Z,994.96
2018-12-02T02:10:17.285Z,994.92
2018-12-02T02:11:17.267Z,994.90
2018-12-02T02:12:17.250Z,994.86
2018-12-02T02:13:17.242Z,994.82
2018-12-02T02:14:17.226Z,994.77
2018-12-02T02:15:17.652Z,994.82
2018-12-02T02:16:17.218Z,994.73
2018-12-02T02:17:17.196Z,994.73
2018-12-02T02:18:17.182Z,994.69
2018-12-02T02:19:17.170Z,994.69
2018-12-02T02:20:17.186Z,994.63
2018-12-02T02:21:17.151Z,994.62
2018-12-02T02:22:17.134Z,994.57
2018-12-02T02:23:17.127Z,994.54
2018-12-02T02:24:17.119Z,994.52
2018-12-02T02:25:17.147Z,994.46
2018-12-02T02:26:17.093Z,994.45
2018-12-02T02:27:17.091Z,994.45
2018-12-02T02:28:17.070Z,994.44
2018-12-02T02:29:17.119Z,994.37
2018-12-02T02:30:17.061Z,994.35
2018-12-02T02:31:17.045Z,994.32
2018-12-02T02:32:17.027Z,994.27
2018-12-02T02:33:17.028Z,994.26
2018-12-02T02:34:17.004Z,994.17
2018-12-02T02:35:17.020Z,994.12
2018-12-02T02:36:16.980Z,994.12
2018-12-02T02:37:16.973Z,994.11
2018-12-02T02:38:16.962Z,994.13
2018-12-02T02:39:16.969Z,994.12
2018-12-02T02:40:16.949Z,994.05
2018-12-02T02:41:16.937Z,994.11
2018-12-02T02:42:16.916Z,994.02
2018-12-02T02:43:16.904Z,994.07
2018-12-02T02:44:16.891Z,994.04
2018-12-02T02:45:16.893Z,994.04
2018-12-02T02:46:16.870Z,994.09
2018-12-02T02:47:16.858Z,994.10
2018-12-02T02:48:16.861Z,994.11
2018-12-02T02:49:17.792Z,994.05
2018-12-02T02:50:16.838Z,994.06
2018-12-02T02:51:16.811Z,994.00
2018-12-02T02:52:16.815Z,993.96
2018-12-02T02:53:16.789Z,993.91
2018-12-02T02:54:16.795Z,993.95
2018-12-02T02:55:16.781Z,993.95
2018-12-02T02:56:16.756Z,993.94
2018-12-02T02:57:16.751Z,993.94
2018-12-02T02:58:16.739Z,993.96
2018-12-02T02:59:16.727Z,993.89
2018-12-02T03:00:16.742Z,993.89
2018-12-02T03:01:16.701Z,993.86
2018-12-02T03:02:16.717Z,993.82
2018-12-02T03:03:16.678Z,993.83
2018-12-02T03:04:16.682Z,993.83
2018-12-02T03:05:16.670Z,993.85
2018-12-02T03:06:16.671Z,993.82
2018-12-02T03:07:16.636Z,993.82
2018-12-02T03:08:16.623Z,993.85
2018-12-02T03:09:16.616Z,993.87
2018-12-02T03:10:16.616Z,993.89
2018-12-02T03:11:16.606Z,993.89
2018-12-02T03:12:16.578Z,993.85
2018-12-02T03:13:16.575Z,993.84
2018-12-02T03:14:16.557Z,993.88
2018-12-02T03:15:16.553Z,993.87
2018-12-02T03:16:16.553Z,993.88
2018-12-02T03:17:16.521Z,993.83
2018-12-02T03:18:16.509Z,993.87
2018-12-02T03:19:16.501Z,993.82
2018-12-02T03:20:16.491Z,993.80
2018-12-02T03:21:16.489Z,993.70
2018-12-02T03:22:16.477Z,993.68
2018-12-02T03:23:16.456Z,993.72
2018-12-02T03:24:16.448Z,993.71
2018-12-02T03:25:16.453Z,993.76
2018-12-02T03:26:16.439Z,993.64
2018-12-02T03:27:16.445Z,993.57
2018-12-02T03:28:16.401Z,993.53
2018-12-02T03:29:16.388Z,993.48
2018-12-02T03:30:16.383Z,993.52
2018-12-02T03:31:16.380Z,993.52
2018-12-02T03:32:16.370Z,993.52
2018-12-02T03:33:16.374Z,993.52
2018-12-02T03:34:16.333Z,993.54
2018-12-02T03:35:16.331Z,993.53
2018-12-02T03:36:16.319Z,993.53
2018-12-02T03:37:16.298Z,993.52
2018-12-02T03:38:16.301Z,993.51
2018-12-02T03:39:16.291Z,993.49
2018-12-02T03:40:16.312Z,993.47
2018-12-02T03:41:16.280Z,993.44
2018-12-02T03:42:16.240Z,993.48
2018-12-02T03:43:16.234Z,993.45
2018-12-02T03:44:16.221Z,993.44
2018-12-02T03:45:16.257Z,993.43
2018-12-02T03:46:16.214Z,993.39
2018-12-02T03:47:16.187Z,993.33
2018-12-02T03:48:16.193Z,993.38
2018-12-02T03:49:16.173Z,993.39
2018-12-02T03:50:17.636Z,993.39
2018-12-02T03:51:16.164Z,993.38
2018-12-02T03:52:16.130Z,993.33
2018-12-02T03:53:16.121Z,993.36
2018-12-02T03:54:16.107Z,993.33
2018-12-02T03:55:16.106Z,993.31
2018-12-02T03:56:16.098Z,993.33
2018-12-02T03:57:16.080Z,993.31
2018-12-02T03:58:16.061Z,993.33
2018-12-02T03:59:16.055Z,993.27
2018-12-02T04:00:16.040Z,993.26
2018-12-02T04:01:16.076Z,993.22
2018-12-02T04:02:16.023Z,993.24
2018-12-02T04:03:16.008Z,993.25
2018-12-02T04:04:15.999Z,993.29
2018-12-02T04:05:15.987Z,993.28
2018-12-02T04:06:15.988Z,993.34
2018-12-02T04:07:16.798Z,993.30
2018-12-02T04:08:15.962Z,993.25
2018-12-02T04:09:15.941Z,993.27
2018-12-02T04:10:15.929Z,993.23
2018-12-02T04:11:15.950Z,993.25
2018-12-02T04:12:15.909Z,993.20
2018-12-02T04:13:15.897Z,993.24
2018-12-02T04:14:15.891Z,993.23
2018-12-02T04:15:15.875Z,993.22
2018-12-02T04:16:15.892Z,993.24
2018-12-02T04:17:15.850Z,993.23
2018-12-02T04:18:15.851Z,993.13
2018-12-02T04:19:15.833Z,993.18
2018-12-02T04:20:15.817Z,993.17
2018-12-02T04:21:15.813Z,993.14
2018-12-02T04:22:15.809Z,993.20
2018-12-02T04:23:15.786Z,993.20
2018-12-02T04:24:15.794Z,993.20
2018-12-02T04:25:15.769Z,993.07
2018-12-02T04:26:15.762Z,993.08
2018-12-02T04:27:15.755Z,993.04
2018-12-02T04:28:15.729Z,993.11
2018-12-02T04:29:15.718Z,993.07
2018-12-02T04:30:15.709Z,993.06
2018-12-02T04:31:15.696Z,993.07
2018-12-02T04:32:15.697Z,993.07
2018-12-02T04:33:15.674Z,993.06
2018-12-02T04:34:15.680Z,993.08
2018-12-02T04:35:15.650Z,993.10
2018-12-02T04:36:15.648Z,993.07
2018-12-02T04:37:15.651Z,993.08
2018-12-02T04:38:15.618Z,993.04
2018-12-02T04:39:15.612Z,993.07
2018-12-02T04:40:15.597Z,993.04
2018-12-02T04:41:15.586Z,993.03
2018-12-02T04:42:15.589Z,993.01
2018-12-02T04:43:15.567Z,993.01
2018-12-02T04:44:15.554Z,992.98
2018-12-02T04:45:15.543Z,992.98
2018-12-02T04:46:15.530Z,992.96
2018-12-02T04:47:15.554Z,992.96
2018-12-02T04:48:15.520Z,992.92
2018-12-02T04:49:15.496Z,992.94
2018-12-02T04:50:15.483Z,992.89
2018-12-02T04:51:15.476Z,992.90
2018-12-02T04:52:15.479Z,992.86
2018-12-02T04:53:15.450Z,992.87
2018-12-02T04:54:15.438Z,992.85
2018-12-02T04:55:15.437Z,992.82
2018-12-02T04:56:15.417Z,992.77
2018-12-02T04:57:15.432Z,992.77
2018-12-02T04:58:15.393Z,992.74
2018-12-02T04:59:15.438Z,992.70
2018-12-02T05:00:15.379Z,992.66
2018-12-02T05:01:15.360Z,992.64
2018-12-02T05:02:15.360Z,992.65
2018-12-02T05:03:15.341Z,992.66
2018-12-02T05:04:15.329Z,992.59
2018-12-02T05:05:15.343Z,992.59
2018-12-02T05:06:15.311Z,992.60
2018-12-02T05:07:15.303Z,992.57
2018-12-02T05:08:15.282Z,992.49
2018-12-02T05:09:15.286Z,992.50
2018-12-02T05:10:15.273Z,992.50
2018-12-02T05:11:15.248Z,992.50
2018-12-02T05:12:15.257Z,992.43
2018-12-02T05:13:15.225Z,992.44
2018-12-02T05:14:15.217Z,992.45
2018-12-02T05:15:15.205Z,992.40
2018-12-02T05:16:15.195Z,992.39
2018-12-02T05:17:15.195Z,992.43
2018-12-02T05:18:15.170Z,992.38
2018-12-02T05:19:15.161Z,992.34
2018-12-02T05:20:15.177Z,992.37
2018-12-02T05:21:15.140Z,992.33
2018-12-02T05:22:15.140Z,992.30
2018-12-02T05:23:15.117Z,992.30
2018-12-02T05:24:15.107Z,992.32
2018-12-02T05:25:18.112Z,992.31
2018-12-02T05:26:15.080Z,992.25
2018-12-02T05:27:15.079Z,992.24
2018-12-02T05:28:15.056Z,992.23
2018-12-02T05:29:15.047Z,992.20
2018-12-02T05:30:15.042Z,992.21
2018-12-02T05:31:15.028Z,992.14
2018-12-02T05:32:15.037Z,992.17
2018-12-02T05:33:15.014Z,992.18
2018-12-02T05:34:14.996Z,992.13
2018-12-02T05:35:14.983Z,992.08
2018-12-02T05:36:14.966Z,992.07
2018-12-02T05:37:14.969Z,992.07
2018-12-02T05:38:15.003Z,992.11
2018-12-02T05:39:14.944Z,992.06
2018-12-02T05:40:14.925Z,992.05
2018-12-02T05:41:14.912Z,992.03
2018-12-02T05:42:14.915Z,992.03
2018-12-02T05:43:14.919Z,992.03
2018-12-02T05:44:14.880Z,992.06
2018-12-02T05:45:14.869Z,992.04
2018-12-02T05:46:14.870Z,992.03
2018-12-02T05:47:14.844Z,992.07
2018-12-02T05:48:14.846Z,992.03
2018-12-02T05:49:14.825Z,992.01
2018-12-02T05:50:14.814Z,992.02
2018-12-02T05:51:14.803Z,992.06
2018-12-02T05:52:14.797Z,991.99
2018-12-02T05:53:14.791Z,992.05
2018-12-02T05:54:14.766Z,992.02
2018-12-02T05:55:14.757Z,992.02
2018-12-02T05:56:14.758Z,992.01
2018-12-02T05:57:14.741Z,991.99
2018-12-02T05:58:14.733Z,991.96
2018-12-02T05:59:14.727Z,991.94
2018-12-02T06:00:14.700Z,991.96
2018-12-02T06:01:14.690Z,991.97
2018-12-02T06:02:14.695Z,991.93
2018-12-02T06:03:14.675Z,991.90
2018-12-02T06:04:14.662Z,991.93
2018-12-02T06:05:14.643Z,991.82
2018-12-02T06:06:14.663Z,991.86
2018-12-02T06:07:14.624Z,991.88
2018-12-02T06:08:14.632Z,991.87
2018-12-02T06:09:14.598Z,991.85
2018-12-02T06:10:14.596Z,991.85
2018-12-02T06:11:14.579Z,991.80
2018-12-02T06:12:14.566Z,991.87
2018-12-02T06:13:14.566Z,991.84
2018-12-02T06:14:14.543Z,991.82
2018-12-02T06:15:14.533Z,991.82
2018-12-02T06:16:14.531Z,991.82
2018-12-02T06:17:14.510Z,991.79
2018-12-02T06:18:14.510Z,991.74
2018-12-02T06:19:14.504Z,991.76
2018-12-02T06:20:14.476Z,991.76
2018-12-02T06:21:14.465Z,991.73
2018-12-02T06:22:14.456Z,991.72
2018-12-02T06:23:14.460Z,991.69
2018-12-02T06:24:14.431Z,991.69
2018-12-02T06:25:14.421Z,991.66
2018-12-02T06:26:14.409Z,991.62
2018-12-02T06:27:14.403Z,991.61
2018-12-02T06:28:14.399Z,991.60
2018-12-02T06:29:14.418Z,991.60
2018-12-02T06:30:14.367Z,991.63
2018-12-02T06:31:14.396Z,991.61
2018-12-02T06:32:14.343Z,991.58
2018-12-02T06:33:14.341Z,991.58
2018-12-02T06:34:14.323Z,991.53
2018-12-02T06:35:14.311Z,991.58
2018-12-02T06:36:14.299Z,991.58
2018-12-02T06:37:14.288Z,991.57
2018-12-02T06:38:14.287Z,991.52
2018-12-02T06:39:14.267Z,991.48
2018-12-02T06:40:14.254Z,991.50
2018-12-02T06:41:14.241Z,991.50
2018-12-02T06:42:14.253Z,991.49
2018-12-02T06:43:14.231Z,991.48
2018-12-02T06:44:14.209Z,991.49
2018-12-02T06:45:14.203Z,991.49
2018-12-02T06:46:14.187Z,991.50
2018-12-02T06:47:14.179Z,991.47
2018-12-02T06:48:14.176Z,991.44
2018-12-02T06:49:14.152Z,991.43
2018-12-02T06:50:14.145Z,991.47
2018-12-02T06:51:14.133Z,991.43
2018-12-02T06:52:14.121Z,991.44
2018-12-02T06:53:14.119Z,991.41
2018-12-02T06:54:14.097Z,991.44
2018-12-02T06:55:14.089Z,991.39
2018-12-02T06:56:14.077Z,991.43
2018-12-02T06:57:14.061Z,991.37
2018-12-02T06:58:14.069Z,991.42
2018-12-02T06:59:14.057Z,991.38
2018-12-02T07:00:14.028Z,991.38
2018-12-02T07:01:14.016Z,991.38
2018-12-02T07:02:14.004Z,991.36
2018-12-02T07:03:14.006Z,991.33
2018-12-02T07:04:13.990Z,991.32
2018-12-02T07:05:13.992Z,991.28
2018-12-02T07:06:13.961Z,991.27
2018-12-02T07:07:13.949Z,991.31
2018-12-02T07:08:13.952Z,991.28
2018-12-02T07:09:13.946Z,991.23
2018-12-02T07:10:13.925Z,991.23
2018-12-02T07:11:13.903Z,991.22
2018-12-02T07:12:13.894Z,991.20
2018-12-02T07:13:13.911Z,991.22
2018-12-02T07:14:13.869Z,991.20
2018-12-02T07:15:13.860Z,991.22
2018-12-02T07:16:13.861Z,991.23
2018-12-02T07:17:13.838Z,991.16
2018-12-02T07:18:13.826Z,991.19
2018-12-02T07:19:13.826Z,991.22
2018-12-02T07:20:13.806Z,991.17
2018-12-02T07:21:13.793Z,991.18
2018-12-02T07:22:13.797Z,991.18
2018-12-02T07:23:13.773Z,991.19
2018-12-02T07:24:13.770Z,991.16
2018-12-02T07:25:13.751Z,991.17
2018-12-02T07:26:13.746Z,991.18
2018-12-02T07:27:13.734Z,991.16
2018-12-02T07:28:13.729Z,991.18
2018-12-02T07:29:13.716Z,991.17
2018-12-02T07:30:13.692Z,991.17
2018-12-02T07:31:13.685Z,991.22
2018-12-02T07:32:13.669Z,991.20
2018-12-02T07:33:13.662Z,991.21
2018-12-02T07:34:13.678Z,991.17
2018-12-02T07:35:13.635Z,991.16
2018-12-02T07:36:13.623Z,991.19
2018-12-02T07:37:13.616Z,991.16
2018-12-02T07:38:13.627Z,991.17
2018-12-02T07:39:13.616Z,991.16
2018-12-02T07:40:13.590Z,991.15
2018-12-02T07:41:13.569Z,991.13
2018-12-02T07:42:13.558Z,991.10
2018-12-02T07:43:13.551Z,991.13
2018-12-02T07:44:13.559Z,991.10
2018-12-02T07:45:13.523Z,991.10
2018-12-02T07:46:13.516Z,991.10
2018-12-02T07:47:13.502Z,991.10
2018-12-02T07:48:13.493Z,991.12
2018-12-02T07:49:13.493Z,991.06
2018-12-02T07:50:13.480Z,991.03
2018-12-02T07:51:13.501Z,991.08
2018-12-02T07:52:13.444Z,991.01
2018-12-02T07:53:13.435Z,991.01
2018-12-02T07:54:13.453Z,991.01
2018-12-02T07:55:13.420Z,991.00
2018-12-02T07:56:13.419Z,991.00
2018-12-02T07:57:13.389Z,990.98
2018-12-02T07:58:13.378Z,990.95
2018-12-02T07:59:13.372Z,990.95
2018-12-02T08:00:13.370Z,990.91
2018-12-02T08:01:13.369Z,990.95
2018-12-02T08:02:13.349Z,990.92
2018-12-02T08:03:13.323Z,990.92
2018-12-02T08:04:13.317Z,990.89
2018-12-02T08:05:13.314Z,990.84
2018-12-02T08:06:13.288Z,990.82
2018-12-02T08:07:13.280Z,990.83
2018-12-02T08:08:13.287Z,990.81
2018-12-02T08:09:13.257Z,990.78
2018-12-02T08:10:13.256Z,990.78
2018-12-02T08:11:13.233Z,990.78
2018-12-02T08:12:13.224Z,990.74
2018-12-02T08:13:13.219Z,990.72
2018-12-02T08:14:13.234Z,990.72
2018-12-02T08:15:13.198Z,990.68
2018-12-02T08:16:13.176Z,990.70
2018-12-02T08:17:13.170Z,990.70
2018-12-02T08:18:13.157Z,990.72
2018-12-02T08:19:13.153Z,990.67
2018-12-02T08:20:13.151Z,990.69
2018-12-02T08:21:13.124Z,990.69
2018-12-02T08:22:13.110Z,990.67
2018-12-02T08:23:13.106Z,990.71
2018-12-02T08:24:13.088Z,990.66
2018-12-02T08:25:13.096Z,990.64
2018-12-02T08:26:13.078Z,990.62
2018-12-02T08:27:13.936Z,990.62
2018-12-02T08:28:13.043Z,990.63
2018-12-02T08:29:13.029Z,990.62
2018-12-02T08:30:13.030Z,990.63
2018-12-02T08:31:13.006Z,990.61
2018-12-02T08:32:12.996Z,990.61
2018-12-02T08:33:12.985Z,990.60
2018-12-02T08:34:12.979Z,990.58
2018-12-02T08:35:12.993Z,990.61
2018-12-02T08:36:12.971Z,990.59
2018-12-02T08:37:12.951Z,990.55
2018-12-02T08:38:12.927Z,990.54
2018-12-02T08:39:12.923Z,990.59
2018-12-02T08:40:12.922Z,990.59
2018-12-02T08:41:12.905Z,990.60
2018-12-02T08:42:12.884Z,990.59
2018-12-02T08:43:12.882Z,990.56
2018-12-02T08:44:12.860Z,990.54
2018-12-02T08:45:12.900Z,990.52
2018-12-02T08:46:12.852Z,990.54
2018-12-02T08:47:12.839Z,990.53
2018-12-02T08:48:12.847Z,990.54
2018-12-02T08:49:12.804Z,990.47
2018-12-02T08:50:12.793Z,990.50
2018-12-02T08:51:12.794Z,990.47
2018-12-02T08:52:12.771Z,990.47
2018-12-02T08:53:12.759Z,990.51
2018-12-02T08:54:12.786Z,990.49
2018-12-02T08:55:12.737Z,990.49
2018-12-02T08:56:12.738Z,990.49
2018-12-02T08:57:12.729Z,990.44
2018-12-02T08:58:12.706Z,990.51
2018-12-02T08:59:12.694Z,990.48
2018-12-02T09:00:12.698Z,990.42
2018-12-02T09:01:12.705Z,990.41
2018-12-02T09:02:12.658Z,990.44
2018-12-02T09:03:12.650Z,990.43
2018-12-02T09:04:12.642Z,990.42
2018-12-02T09:05:12.626Z,990.44
2018-12-02T09:06:12.626Z,990.45
2018-12-02T09:07:12.608Z,990.38
2018-12-02T09:08:12.591Z,990.38
2018-12-02T09:09:12.583Z,990.43
2018-12-02T09:10:12.571Z,990.39
2018-12-02T09:11:12.569Z,990.39
2018-12-02T09:12:12.546Z,990.37
2018-12-02T09:13:12.542Z,990.43
2018-12-02T09:14:12.537Z,990.40
2018-12-02T09:15:12.514Z,990.38
2018-12-02T09:16:12.522Z,990.38
2018-12-02T09:17:12.492Z,990.32
2018-12-02T09:18:12.485Z,990.36
2018-12-02T09:19:12.475Z,990.33
2018-12-02T09:20:12.456Z,990.35
2018-12-02T09:21:12.459Z,990.38
2018-12-02T09:22:12.433Z,990.38
2018-12-02T09:23:13.141Z,990.32
2018-12-02T09:24:12.412Z,990.29
2018-12-02T09:25:12.401Z,990.30
2018-12-02T09:26:12.409Z,990.30
2018-12-02T09:27:12.379Z,990.34
2018-12-02T09:28:12.369Z,990.31
2018-12-02T09:29:12.363Z,990.28
2018-12-02T09:30:12.345Z,990.27
2018-12-02T09:31:12.357Z,990.26
2018-12-02T09:32:12.331Z,990.26
2018-12-02T09:33:12.314Z,990.26
2018-12-02T09:34:12.315Z,990.25
2018-12-02T09:35:12.288Z,990.27
2018-12-02T09:36:12.306Z,990.31
2018-12-02T09:37:12.265Z,990.31
2018-12-02T09:38:12.266Z,990.27
2018-12-02T09:39:12.250Z,990.28
2018-12-02T09:40:12.242Z,990.30
2018-12-02T09:41:12.219Z,990.23
2018-12-02T09:42:12.224Z,990.23
2018-12-02T09:43:12.198Z,990.22
2018-12-02T09:44:19.712Z,990.24
2018-12-02T09:45:12.176Z,990.21
2018-12-02T09:46:12.180Z,990.21
2018-12-02T09:47:20.934Z,990.18
2018-12-02T09:48:19.668Z,990.19
2018-12-02T09:49:12.130Z,990.20
2018-12-02T09:50:12.119Z,990.15
2018-12-02T09:51:12.109Z,990.16
2018-12-02T09:52:12.109Z,990.12
2018-12-02T09:53:12.089Z,990.16
2018-12-02T09:54:12.091Z,990.12
2018-12-02T09:55:12.069Z,990.10
2018-12-02T09:56:12.052Z,990.10
2018-12-02T09:57:12.052Z,990.10
2018-12-02T09:58:12.051Z,990.05
2018-12-02T09:59:12.019Z,990.09
2018-12-02T10:00:12.012Z,990.07
2018-12-02T10:01:11.999Z,990.06
2018-12-02T10:02:12.233Z,990.06
2018-12-02T10:03:11.976Z,990.07
2018-12-02T10:04:11.967Z,990.05
2018-12-02T10:05:11.952Z,990.01
2018-12-02T10:06:11.941Z,990.01
2018-12-02T10:07:11.945Z,989.98
2018-12-02T10:08:11.919Z,989.99
2018-12-02T10:09:11.913Z,989.99
2018-12-02T10:10:11.910Z,989.98
2018-12-02T10:11:11.888Z,989.98
2018-12-02T10:12:11.884Z,989.98
2018-12-02T10:13:11.864Z,989.98
2018-12-02T10:14:11.855Z,990.00
2018-12-02T10:15:11.846Z,990.04
2018-12-02T10:16:15.616Z,990.02
2018-12-02T10:17:11.830Z,990.00
2018-12-02T10:18:11.808Z,989.95
2018-12-02T10:19:11.800Z,989.98
2018-12-02T10:20:11.785Z,989.97
2018-12-02T10:21:11.774Z,990.01
2018-12-02T10:22:11.797Z,990.00
2018-12-02T10:23:11.752Z,989.98
2018-12-02T10:24:11.746Z,989.98
2018-12-02T10:25:11.729Z,989.89
2018-12-02T10:26:11.718Z,989.94
2018-12-02T10:27:11.727Z,989.89
2018-12-02T10:28:11.698Z,989.93
2018-12-02T10:29:11.686Z,989.92
2018-12-02T10:30:11.742Z,989.93
2018-12-02T10:31:11.661Z,989.92
2018-12-02T10:32:12.412Z,989.92
2018-12-02T10:33:11.640Z,989.88
2018-12-02T10:34:11.627Z,989.87
2018-12-02T10:35:11.622Z,989.87
2018-12-02T10:36:11.603Z,989.82
2018-12-02T10:37:11.605Z,989.80
2018-12-02T10:38:11.592Z,989.83
2018-12-02T10:39:11.581Z,989.76
2018-12-02T10:40:11.560Z,989.82
2018-12-02T10:41:11.570Z,989.77
2018-12-02T10:42:11.575Z,989.77
2018-12-02T10:43:11.527Z,989.77
2018-12-02T10:44:11.524Z,989.70
2018-12-02T10:45:11.526Z,989.65
2018-12-02T10:46:13.377Z,989.67
2018-12-02T10:47:11.498Z,989.65
2018-12-02T10:48:11.470Z,989.68
2018-12-02T10:49:11.461Z,989.68
2018-12-02T10:50:11.458Z,989.64
2018-12-02T10:51:11.468Z,989.60
2018-12-02T10:52:11.437Z,989.67
2018-12-02T10:53:11.418Z,989.64
2018-12-02T10:54:11.406Z,989.67
2018-12-02T10:55:11.401Z,989.61
2018-12-02T10:56:11.384Z,989.59
2018-12-02T10:57:11.403Z,989.61
2018-12-02T10:58:11.361Z,989.56
2018-12-02T10:59:11.346Z,989.60
2018-12-02T11:00:11.336Z,989.61
2018-12-02T11:01:11.331Z,989.57
2018-12-02T11:02:11.345Z,989.56
2018-12-02T11:03:11.306Z,989.51
2018-12-02T11:04:11.311Z,989.54
2018-12-02T11:05:11.280Z,989.51
2018-12-02T11:06:11.269Z,989.57
2018-12-02T11:07:11.267Z,989.54
2018-12-02T11:08:11.286Z,989.53
2018-12-02T11:09:11.236Z,989.51
2018-12-02T11:10:11.224Z,989.56
2018-12-02T11:11:11.226Z,989.50
2018-12-02T11:12:11.204Z,989.54
2018-12-02T11:13:11.209Z,989.57
2018-12-02T11:14:11.181Z,989.56
2018-12-02T11:15:11.185Z,989.53
2018-12-02T11:16:11.158Z,989.54
2018-12-02T11:17:11.145Z,989.52
2018-12-02T11:18:11.173Z,989.56
2018-12-02T11:19:11.121Z,989.60
2018-12-02T11:20:11.112Z,989.54
2018-12-02T11:21:11.139Z,989.56
2018-12-02T11:22:11.094Z,989.53
2018-12-02T11:23:11.091Z,989.49
2018-12-02T11:24:11.076Z,989.55
2018-12-02T11:25:11.064Z,989.54
2018-12-02T11:26:11.046Z,989.57
2018-12-02T11:27:11.056Z,989.54
2018-12-02T11:28:11.084Z,989.57
2018-12-02T11:29:11.022Z,989.60
2018-12-02T11:30:11.023Z,989.54
2018-12-02T11:31:11.032Z,989.55
2018-12-02T11:32:10.980Z,989.52
2018-12-02T11:33:10.990Z,989.51
2018-12-02T11:34:10.957Z,989.51
2018-12-02T11:35:10.946Z,989.52
2018-12-02T11:36:10.932Z,989.47
2018-12-02T11:37:10.935Z,989.50
2018-12-02T11:38:10.974Z,989.47
2018-12-02T11:39:10.904Z,989.50
2018-12-02T11:40:10.891Z,989.54
2018-12-02T11:41:10.882Z,989.50
2018-12-02T11:42:10.898Z,989.53
2018-12-02T11:43:10.926Z,989.53
2018-12-02T11:44:10.842Z,989.53
2018-12-02T11:45:10.844Z,989.56
2018-12-02T11:46:10.823Z,989.58
2018-12-02T11:47:10.828Z,989.51
2018-12-02T11:48:10.815Z,989.57
2018-12-02T11:49:10.793Z,989.47
2018-12-02T11:50:10.774Z,989.44
2018-12-02T11:51:10.770Z,989.52
2018-12-02T11:52:10.759Z,989.58
2018-12-02T11:53:10.779Z,989.59
2018-12-02T11:54:10.768Z,989.58
2018-12-02T11:55:10.742Z,989.61
2018-12-02T11:56:10.752Z,989.58
2018-12-02T11:57:10.697Z,989.56
2018-12-02T11:58:10.698Z,989.56
2018-12-02T11:59:10.688Z,989.55
2018-12-02T12:00:10.685Z,989.57
2018-12-02T12:01:10.676Z,989.57
2018-12-02T12:02:10.640Z,989.63
2018-12-02T12:03:10.639Z,989.64
2018-12-02T12:04:10.637Z,989.52
2018-12-02T12:05:11.068Z,989.57
2018-12-02T12:06:10.605Z,989.52
2018-12-02T12:07:10.585Z,989.56
2018-12-02T12:08:10.602Z,989.61
2018-12-02T12:09:10.572Z,989.60
2018-12-02T12:10:11.857Z,989.55
2018-12-02T12:11:10.707Z,989.48
2018-12-02T12:12:10.537Z,989.52
2018-12-02T12:13:16.024Z,989.54
2018-12-02T12:14:10.505Z,989.51
2018-12-02T12:15:10.584Z,989.52
2018-12-02T12:16:10.486Z,989.52
2018-12-02T12:17:10.602Z,989.53
2018-12-02T12:18:10.551Z,989.50
2018-12-02T12:19:10.447Z,989.48
2018-12-02T12:20:11.001Z,989.47
2018-12-02T12:21:10.432Z,989.49
2018-12-02T12:22:10.430Z,989.50
2018-12-02T12:23:10.414Z,989.48
2018-12-02T12:24:10.393Z,989.54
2018-12-02T12:25:10.378Z,989.51
2018-12-02T12:26:10.373Z,989.51
2018-12-02T12:27:10.375Z,989.48
2018-12-02T12:28:10.541Z,989.52